sensor_id;sensor_type;location;lat;lon;timestamp;P1;durP1;ratioP1;P2;durP2;ratioP2
27491;SDS011;14927;51.210;6.838;2024-02-04T00:02:14;3.10;;;2.38;;
27491;SDS011;14927;51.210;6.838;2024-02-04T00:04:59;5.00;;;2.22;;
27491;SDS011;14927;51.210;6.838;2024-02-04T00:07:44;2.28;;;1.77;;
27491;SDS011;14927;51.210;6.838;2024-02-04T00:10:29;3.28;;;1.70;;
27491;SDS011;14927;51.210;6.838;2024-02-04T00:13:13;1.83;;;1.40;;
27491;SDS011;14927;51.210;6.838;2024-02-04T00:15:58;1.67;;;1.52;;
27491;SDS011;14927;51.210;6.838;2024-02-04T00:18:42;2.40;;;1.23;;
27491;SDS011;14927;51.210;6.838;2024-02-04T00:21:27;0.90;;;0.90;;
27491;SDS011;14927;51.210;6.838;2024-02-04T00:24:12;2.72;;;1.00;;
27491;SDS011;14927;51.210;6.838;2024-02-04T00:26:56;2.08;;;1.17;;
27491;SDS011;14927;51.210;6.838;2024-02-04T00:29:41;1.38;;;0.93;;
27491;SDS011;14927;51.210;6.838;2024-02-04T00:32:26;1.63;;;1.13;;
27491;SDS011;14927;51.210;6.838;2024-02-04T00:35:10;1.50;;;1.40;;
27491;SDS011;14927;51.210;6.838;2024-02-04T00:37:55;1.67;;;1.55;;
27491;SDS011;14927;51.210;6.838;2024-02-04T00:40:41;1.95;;;1.85;;
27491;SDS011;14927;51.210;6.838;2024-02-04T00:43:26;2.03;;;1.92;;
27491;SDS011;14927;51.210;6.838;2024-02-04T00:46:11;2.22;;;2.03;;
27491;SDS011;14927;51.210;6.838;2024-02-04T00:48:56;2.70;;;2.42;;
27491;SDS011;14927;51.210;6.838;2024-02-04T00:51:40;2.97;;;2.78;;
27491;SDS011;14927;51.210;6.838;2024-02-04T00:54:25;2.83;;;2.63;;
27491;SDS011;14927;51.210;6.838;2024-02-04T00:57:12;3.00;;;2.80;;
27491;SDS011;14927;51.210;6.838;2024-02-04T00:59:57;3.28;;;2.97;;
27491;SDS011;14927;51.210;6.838;2024-02-04T01:02:42;3.30;;;3.10;;
27491;SDS011;14927;51.210;6.838;2024-02-04T01:05:29;3.70;;;3.28;;
27491;SDS011;14927;51.210;6.838;2024-02-04T01:16:14;3.05;;;2.85;;
27491;SDS011;14927;51.210;6.838;2024-02-04T01:37:42;2.65;;;2.45;;
27491;SDS011;14927;51.210;6.838;2024-02-04T01:40:27;3.75;;;2.78;;
27491;SDS011;14927;51.210;6.838;2024-02-04T01:43:12;3.38;;;2.72;;
27491;SDS011;14927;51.210;6.838;2024-02-04T01:45:56;3.60;;;2.95;;
27491;SDS011;14927;51.210;6.838;2024-02-04T01:48:41;2.50;;;2.40;;
27491;SDS011;14927;51.210;6.838;2024-02-04T01:51:26;2.97;;;2.65;;
27491;SDS011;14927;51.210;6.838;2024-02-04T01:54:11;2.90;;;2.55;;
27491;SDS011;14927;51.210;6.838;2024-02-04T01:56:55;3.30;;;3.00;;
27491;SDS011;14927;51.210;6.838;2024-02-04T01:59:42;2.92;;;2.72;;
27491;SDS011;14927;51.210;6.838;2024-02-04T02:02:28;3.20;;;2.90;;
27491;SDS011;14927;51.210;6.838;2024-02-04T02:05:13;4.55;;;2.65;;
27491;SDS011;14927;51.210;6.838;2024-02-04T02:07:57;2.60;;;2.40;;
27491;SDS011;14927;51.210;6.838;2024-02-04T02:10:42;3.90;;;2.70;;
27491;SDS011;14927;51.210;6.838;2024-02-04T02:13:31;2.72;;;2.53;;
27491;SDS011;14927;51.210;6.838;2024-02-04T02:16:18;2.65;;;2.45;;
27491;SDS011;14927;51.210;6.838;2024-02-04T02:22:47;2.80;;;2.60;;
27491;SDS011;14927;51.210;6.838;2024-02-04T02:25:44;2.80;;;2.60;;
27491;SDS011;14927;51.210;6.838;2024-02-04T02:28:30;3.55;;;2.75;;
27491;SDS011;14927;51.210;6.838;2024-02-04T02:31:14;2.95;;;2.75;;
27491;SDS011;14927;51.210;6.838;2024-02-04T02:33:59;2.78;;;2.50;;
27491;SDS011;14927;51.210;6.838;2024-02-04T02:36:44;2.53;;;2.42;;
27491;SDS011;14927;51.210;6.838;2024-02-04T02:39:45;4.78;;;3.15;;
27491;SDS011;14927;51.210;6.838;2024-02-04T02:42:50;3.08;;;2.88;;
27491;SDS011;14927;51.210;6.838;2024-02-04T02:45:39;3.15;;;2.95;;
27491;SDS011;14927;51.210;6.838;2024-02-04T02:48:27;3.28;;;3.03;;
27491;SDS011;14927;51.210;6.838;2024-02-04T02:51:12;3.10;;;2.85;;
27491;SDS011;14927;51.210;6.838;2024-02-04T02:53:56;2.75;;;2.53;;
27491;SDS011;14927;51.210;6.838;2024-02-04T02:56:40;2.67;;;2.47;;
27491;SDS011;14927;51.210;6.838;2024-02-04T02:59:25;3.20;;;2.90;;
27491;SDS011;14927;51.210;6.838;2024-02-04T03:02:10;2.78;;;2.58;;
27491;SDS011;14927;51.210;6.838;2024-02-04T03:04:55;2.42;;;2.22;;
27491;SDS011;14927;51.210;6.838;2024-02-04T03:07:39;3.17;;;2.55;;
27491;SDS011;14927;51.210;6.838;2024-02-04T03:10:24;2.67;;;2.40;;
27491;SDS011;14927;51.210;6.838;2024-02-04T03:13:08;2.53;;;2.33;;
27491;SDS011;14927;51.210;6.838;2024-02-04T03:15:53;3.33;;;3.03;;
27491;SDS011;14927;51.210;6.838;2024-02-04T03:18:41;3.25;;;2.95;;
27491;SDS011;14927;51.210;6.838;2024-02-04T03:21:27;3.08;;;2.60;;
27491;SDS011;14927;51.210;6.838;2024-02-04T03:24:12;2.72;;;2.53;;
27491;SDS011;14927;51.210;6.838;2024-02-04T03:26:57;3.17;;;2.92;;
27491;SDS011;14927;51.210;6.838;2024-02-04T03:29:41;3.13;;;2.80;;
27491;SDS011;14927;51.210;6.838;2024-02-04T03:32:26;2.90;;;2.70;;
27491;SDS011;14927;51.210;6.838;2024-02-04T03:35:10;2.53;;;2.30;;
27491;SDS011;14927;51.210;6.838;2024-02-04T03:37:55;2.60;;;2.40;;
27491;SDS011;14927;51.210;6.838;2024-02-04T03:40:39;2.90;;;2.70;;
27491;SDS011;14927;51.210;6.838;2024-02-04T03:43:26;3.08;;;2.80;;
27491;SDS011;14927;51.210;6.838;2024-02-04T03:46:14;3.30;;;3.00;;
27491;SDS011;14927;51.210;6.838;2024-02-04T03:49:01;3.85;;;2.63;;
27491;SDS011;14927;51.210;6.838;2024-02-04T03:51:45;4.82;;;3.58;;
27491;SDS011;14927;51.210;6.838;2024-02-04T03:54:31;4.38;;;3.40;;
27491;SDS011;14927;51.210;6.838;2024-02-04T03:57:15;3.58;;;3.28;;
27491;SDS011;14927;51.210;6.838;2024-02-04T04:00:00;3.95;;;3.58;;
27491;SDS011;14927;51.210;6.838;2024-02-04T04:02:44;4.05;;;3.65;;
27491;SDS011;14927;51.210;6.838;2024-02-04T04:05:29;4.65;;;4.25;;
27491;SDS011;14927;51.210;6.838;2024-02-04T04:08:14;5.53;;;4.43;;
27491;SDS011;14927;51.210;6.838;2024-02-04T04:10:58;5.63;;;5.00;;
27491;SDS011;14927;51.210;6.838;2024-02-04T04:13:43;5.97;;;5.38;;
27491;SDS011;14927;51.210;6.838;2024-02-04T04:16:28;6.05;;;5.45;;
27491;SDS011;14927;51.210;6.838;2024-02-04T04:19:12;5.65;;;5.15;;
27491;SDS011;14927;51.210;6.838;2024-02-04T04:21:57;7.13;;;6.38;;
27491;SDS011;14927;51.210;6.838;2024-02-04T04:24:43;6.43;;;5.75;;
27491;SDS011;14927;51.210;6.838;2024-02-04T04:27:28;9.60;;;6.47;;
27491;SDS011;14927;51.210;6.838;2024-02-04T04:30:12;8.77;;;6.03;;
27491;SDS011;14927;51.210;6.838;2024-02-04T04:32:57;7.97;;;6.82;;
27491;SDS011;14927;51.210;6.838;2024-02-04T04:35:42;8.18;;;6.93;;
27491;SDS011;14927;51.210;6.838;2024-02-04T04:38:27;7.25;;;6.38;;
27491;SDS011;14927;51.210;6.838;2024-02-04T04:41:11;7.57;;;6.70;;
27491;SDS011;14927;51.210;6.838;2024-02-04T04:43:56;8.88;;;6.97;;
27491;SDS011;14927;51.210;6.838;2024-02-04T04:46:40;7.68;;;6.60;;
27491;SDS011;14927;51.210;6.838;2024-02-04T04:49:25;7.25;;;6.47;;
27491;SDS011;14927;51.210;6.838;2024-02-04T04:52:09;9.20;;;7.18;;
27491;SDS011;14927;51.210;6.838;2024-02-04T04:54:54;9.27;;;7.30;;
27491;SDS011;14927;51.210;6.838;2024-02-04T04:57:40;10.23;;;7.65;;
27491;SDS011;14927;51.210;6.838;2024-02-04T05:00:24;8.70;;;7.55;;
27491;SDS011;14927;51.210;6.838;2024-02-04T05:03:09;8.32;;;7.32;;
27491;SDS011;14927;51.210;6.838;2024-02-04T05:05:53;8.77;;;7.85;;
27491;SDS011;14927;51.210;6.838;2024-02-04T05:08:38;9.60;;;8.10;;
27491;SDS011;14927;51.210;6.838;2024-02-04T05:11:23;9.50;;;8.27;;
27491;SDS011;14927;51.210;6.838;2024-02-04T05:14:07;9.82;;;7.88;;
27491;SDS011;14927;51.210;6.838;2024-02-04T05:16:52;10.20;;;9.07;;
27491;SDS011;14927;51.210;6.838;2024-02-04T05:19:40;11.45;;;8.23;;
27491;SDS011;14927;51.210;6.838;2024-02-04T05:22:26;11.80;;;8.70;;
27491;SDS011;14927;51.210;6.838;2024-02-04T05:25:11;14.43;;;8.93;;
27491;SDS011;14927;51.210;6.838;2024-02-04T05:27:55;11.70;;;8.75;;
27491;SDS011;14927;51.210;6.838;2024-02-04T05:30:41;9.80;;;8.63;;
27491;SDS011;14927;51.210;6.838;2024-02-04T05:33:25;10.05;;;7.78;;
27491;SDS011;14927;51.210;6.838;2024-02-04T05:36:12;9.73;;;8.40;;
27491;SDS011;14927;51.210;6.838;2024-02-04T05:38:57;10.20;;;8.90;;
27491;SDS011;14927;51.210;6.838;2024-02-04T05:41:53;12.18;;;8.75;;
27491;SDS011;14927;51.210;6.838;2024-02-04T05:44:37;17.45;;;8.90;;
27491;SDS011;14927;51.210;6.838;2024-02-04T05:47:22;20.60;;;9.55;;
27491;SDS011;14927;51.210;6.838;2024-02-04T05:50:06;12.18;;;8.88;;
27491;SDS011;14927;51.210;6.838;2024-02-04T05:52:51;12.55;;;9.82;;
27491;SDS011;14927;51.210;6.838;2024-02-04T05:55:36;14.77;;;9.60;;
27491;SDS011;14927;51.210;6.838;2024-02-04T05:58:21;12.30;;;9.52;;
27491;SDS011;14927;51.210;6.838;2024-02-04T06:01:05;10.85;;;8.88;;
27491;SDS011;14927;51.210;6.838;2024-02-04T06:03:51;16.63;;;9.25;;
27491;SDS011;14927;51.210;6.838;2024-02-04T06:06:36;12.07;;;9.07;;
27491;SDS011;14927;51.210;6.838;2024-02-04T06:09:21;11.40;;;8.57;;
27491;SDS011;14927;51.210;6.838;2024-02-04T06:12:05;12.70;;;8.20;;
27491;SDS011;14927;51.210;6.838;2024-02-04T06:14:50;13.10;;;8.00;;
27491;SDS011;14927;51.210;6.838;2024-02-04T06:17:35;10.65;;;7.88;;
27491;SDS011;14927;51.210;6.838;2024-02-04T06:20:19;11.65;;;9.13;;
27491;SDS011;14927;51.210;6.838;2024-02-04T06:23:04;11.75;;;8.40;;
27491;SDS011;14927;51.210;6.838;2024-02-04T06:25:48;13.18;;;8.43;;
27491;SDS011;14927;51.210;6.838;2024-02-04T06:28:33;12.98;;;8.43;;
27491;SDS011;14927;51.210;6.838;2024-02-04T06:31:21;12.20;;;9.18;;
27491;SDS011;14927;51.210;6.838;2024-02-04T06:34:12;18.40;;;8.98;;
27491;SDS011;14927;51.210;6.838;2024-02-04T06:36:57;19.77;;;12.48;;
27491;SDS011;14927;51.210;6.838;2024-02-04T06:39:42;13.05;;;9.45;;
27491;SDS011;14927;51.210;6.838;2024-02-04T06:42:27;15.85;;;9.77;;
27491;SDS011;14927;51.210;6.838;2024-02-04T06:45:11;26.35;;;12.93;;
27491;SDS011;14927;51.210;6.838;2024-02-04T06:47:56;13.15;;;9.30;;
27491;SDS011;14927;51.210;6.838;2024-02-04T06:50:40;10.75;;;7.40;;
27491;SDS011;14927;51.210;6.838;2024-02-04T06:53:27;11.38;;;7.10;;
27491;SDS011;14927;51.210;6.838;2024-02-04T06:56:11;9.75;;;7.13;;
27491;SDS011;14927;51.210;6.838;2024-02-04T06:58:56;11.68;;;6.90;;
27491;SDS011;14927;51.210;6.838;2024-02-04T07:01:40;10.68;;;6.55;;
27491;SDS011;14927;51.210;6.838;2024-02-04T07:04:25;7.88;;;5.90;;
27491;SDS011;14927;51.210;6.838;2024-02-04T07:07:09;7.30;;;6.18;;
27491;SDS011;14927;51.210;6.838;2024-02-04T07:09:54;6.75;;;6.13;;
27491;SDS011;14927;51.210;6.838;2024-02-04T07:12:39;9.52;;;5.40;;
27491;SDS011;14927;51.210;6.838;2024-02-04T07:15:24;7.43;;;5.40;;
27491;SDS011;14927;51.210;6.838;2024-02-04T07:18:08;5.82;;;4.72;;
27491;SDS011;14927;51.210;6.838;2024-02-04T07:20:53;4.60;;;4.20;;
27491;SDS011;14927;51.210;6.838;2024-02-04T07:23:38;4.60;;;3.88;;
27491;SDS011;14927;51.210;6.838;2024-02-04T07:26:23;4.90;;;4.30;;
27491;SDS011;14927;51.210;6.838;2024-02-04T07:29:07;3.78;;;3.28;;
27491;SDS011;14927;51.210;6.838;2024-02-04T07:31:52;5.10;;;3.58;;
27491;SDS011;14927;51.210;6.838;2024-02-04T07:34:36;3.58;;;3.28;;
27491;SDS011;14927;51.210;6.838;2024-02-04T07:37:21;3.67;;;3.38;;
27491;SDS011;14927;51.210;6.838;2024-02-04T07:40:06;3.97;;;3.55;;
27491;SDS011;14927;51.210;6.838;2024-02-04T07:42:51;15.80;;;8.30;;
27491;SDS011;14927;51.210;6.838;2024-02-04T07:45:36;16.90;;;7.63;;
27491;SDS011;14927;51.210;6.838;2024-02-04T07:48:21;22.25;;;9.05;;
27491;SDS011;14927;51.210;6.838;2024-02-04T07:51:06;71.10;;;21.17;;
27491;SDS011;14927;51.210;6.838;2024-02-04T07:53:51;341.38;;;83.38;;
27491;SDS011;14927;51.210;6.838;2024-02-04T07:56:36;99.88;;;27.58;;
27491;SDS011;14927;51.210;6.838;2024-02-04T07:59:20;72.65;;;19.75;;
27491;SDS011;14927;51.210;6.838;2024-02-04T08:02:05;14.98;;;6.15;;
27491;SDS011;14927;51.210;6.838;2024-02-04T08:04:50;7.40;;;4.32;;
27491;SDS011;14927;51.210;6.838;2024-02-04T08:07:35;4.80;;;3.33;;
27491;SDS011;14927;51.210;6.838;2024-02-04T08:10:20;5.68;;;3.60;;
27491;SDS011;14927;51.210;6.838;2024-02-04T08:13:04;3.75;;;3.45;;
27491;SDS011;14927;51.210;6.838;2024-02-04T08:15:49;4.05;;;3.40;;
27491;SDS011;14927;51.210;6.838;2024-02-04T08:18:33;3.72;;;3.40;;
27491;SDS011;14927;51.210;6.838;2024-02-04T08:21:18;3.75;;;3.38;;
27491;SDS011;14927;51.210;6.838;2024-02-04T08:24:03;3.78;;;3.13;;
27491;SDS011;14927;51.210;6.838;2024-02-04T08:26:47;3.50;;;3.17;;
27491;SDS011;14927;51.210;6.838;2024-02-04T08:29:32;4.18;;;2.60;;
27491;SDS011;14927;51.210;6.838;2024-02-04T08:32:16;2.95;;;2.58;;
27491;SDS011;14927;51.210;6.838;2024-02-04T08:35:01;2.85;;;2.53;;
27491;SDS011;14927;51.210;6.838;2024-02-04T08:37:46;2.42;;;2.22;;
27491;SDS011;14927;51.210;6.838;2024-02-04T08:40:30;3.03;;;2.30;;
27491;SDS011;14927;51.210;6.838;2024-02-04T08:43:15;2.03;;;1.92;;
27491;SDS011;14927;51.210;6.838;2024-02-04T08:45:59;2.65;;;1.95;;
27491;SDS011;14927;51.210;6.838;2024-02-04T08:48:44;3.35;;;2.15;;
27491;SDS011;14927;51.210;6.838;2024-02-04T08:51:29;3.90;;;2.38;;
27491;SDS011;14927;51.210;6.838;2024-02-04T08:54:14;3.05;;;2.20;;
27491;SDS011;14927;51.210;6.838;2024-02-04T08:56:58;3.30;;;2.72;;
27491;SDS011;14927;51.210;6.838;2024-02-04T08:59:43;2.85;;;2.65;;
27491;SDS011;14927;51.210;6.838;2024-02-04T09:02:28;3.38;;;2.70;;
27491;SDS011;14927;51.210;6.838;2024-02-04T09:05:12;4.32;;;3.67;;
27491;SDS011;14927;51.210;6.838;2024-02-04T09:08:05;3.83;;;3.20;;
27491;SDS011;14927;51.210;6.838;2024-02-04T09:10:50;3.97;;;3.03;;
27491;SDS011;14927;51.210;6.838;2024-02-04T09:13:46;5.28;;;3.20;;
27491;SDS011;14927;51.210;6.838;2024-02-04T09:16:33;4.07;;;2.85;;
27491;SDS011;14927;51.210;6.838;2024-02-04T09:19:24;4.32;;;3.00;;
27491;SDS011;14927;51.210;6.838;2024-02-04T09:22:19;4.80;;;3.10;;
27491;SDS011;14927;51.210;6.838;2024-02-04T09:25:17;3.75;;;2.72;;
27491;SDS011;14927;51.210;6.838;2024-02-04T09:28:01;2.58;;;2.38;;
27491;SDS011;14927;51.210;6.838;2024-02-04T09:31:10;4.35;;;2.47;;
27491;SDS011;14927;51.210;6.838;2024-02-04T09:34:52;2.70;;;2.33;;
27491;SDS011;14927;51.210;6.838;2024-02-04T09:37:46;2.75;;;2.47;;
27491;SDS011;14927;51.210;6.838;2024-02-04T09:40:49;3.38;;;2.63;;
27491;SDS011;14927;51.210;6.838;2024-02-04T09:43:47;3.20;;;2.50;;
27491;SDS011;14927;51.210;6.838;2024-02-04T09:50:43;3.15;;;2.42;;
27491;SDS011;14927;51.210;6.838;2024-02-04T09:53:40;3.67;;;2.70;;
27491;SDS011;14927;51.210;6.838;2024-02-04T10:04:32;3.80;;;2.83;;
27491;SDS011;14927;51.210;6.838;2024-02-04T10:07:25;3.85;;;2.70;;
27491;SDS011;14927;51.210;6.838;2024-02-04T10:10:13;3.58;;;2.80;;
27491;SDS011;14927;51.210;6.838;2024-02-04T10:12:58;4.03;;;3.05;;
27491;SDS011;14927;51.210;6.838;2024-02-04T10:15:54;4.05;;;2.88;;
27491;SDS011;14927;51.210;6.838;2024-02-04T10:18:51;4.00;;;2.67;;
27491;SDS011;14927;51.210;6.838;2024-02-04T10:21:40;5.07;;;3.28;;
27491;SDS011;14927;51.210;6.838;2024-02-04T10:24:31;2.90;;;2.63;;
27491;SDS011;14927;51.210;6.838;2024-02-04T10:27:41;5.32;;;3.45;;
27491;SDS011;14927;51.210;6.838;2024-02-04T10:34:53;4.80;;;3.58;;
27491;SDS011;14927;51.210;6.838;2024-02-04T10:41:06;3.85;;;3.42;;
27491;SDS011;14927;51.210;6.838;2024-02-04T11:10:52;5.95;;;4.70;;
27491;SDS011;14927;51.210;6.838;2024-02-04T11:13:47;5.65;;;4.70;;
27491;SDS011;14927;51.210;6.838;2024-02-04T11:20:26;6.93;;;4.63;;
27491;SDS011;14927;51.210;6.838;2024-02-04T11:24:32;8.15;;;3.92;;
27491;SDS011;14927;51.210;6.838;2024-02-04T11:28:36;6.22;;;3.88;;
27491;SDS011;14927;51.210;6.838;2024-02-04T11:34:53;6.28;;;4.10;;
27491;SDS011;14927;51.210;6.838;2024-02-04T11:37:58;5.57;;;3.63;;
27491;SDS011;14927;51.210;6.838;2024-02-04T11:41:02;6.55;;;3.58;;
27491;SDS011;14927;51.210;6.838;2024-02-04T11:44:19;5.85;;;3.47;;
27491;SDS011;14927;51.210;6.838;2024-02-04T11:51:24;6.78;;;3.90;;
27491;SDS011;14927;51.210;6.838;2024-02-04T11:54:49;4.53;;;2.85;;
27491;SDS011;14927;51.210;6.838;2024-02-04T11:58:07;5.63;;;3.22;;
27491;SDS011;14927;51.210;6.838;2024-02-04T12:01:12;3.38;;;2.97;;
27491;SDS011;14927;51.210;6.838;2024-02-04T12:10:47;5.18;;;3.00;;
27491;SDS011;14927;51.210;6.838;2024-02-04T12:14:35;5.60;;;2.90;;
27491;SDS011;14927;51.210;6.838;2024-02-04T12:17:55;6.57;;;3.15;;
27491;SDS011;14927;51.210;6.838;2024-02-04T12:21:20;6.53;;;2.80;;
27491;SDS011;14927;51.210;6.838;2024-02-04T12:24:08;5.70;;;2.70;;
27491;SDS011;14927;51.210;6.838;2024-02-04T12:26:53;4.75;;;2.75;;
27491;SDS011;14927;51.210;6.838;2024-02-04T12:29:43;4.57;;;2.60;;
27491;SDS011;14927;51.210;6.838;2024-02-04T12:32:41;4.63;;;2.45;;
27491;SDS011;14927;51.210;6.838;2024-02-04T12:35:31;4.93;;;2.97;;
27491;SDS011;14927;51.210;6.838;2024-02-04T12:38:25;5.95;;;2.50;;
27491;SDS011;14927;51.210;6.838;2024-02-04T12:41:20;4.93;;;2.55;;
27491;SDS011;14927;51.210;6.838;2024-02-04T12:44:42;2.33;;;1.98;;
27491;SDS011;14927;51.210;6.838;2024-02-04T12:47:49;4.63;;;2.58;;
27491;SDS011;14927;51.210;6.838;2024-02-04T12:50:38;2.22;;;1.80;;
27491;SDS011;14927;51.210;6.838;2024-02-04T12:53:22;3.03;;;1.90;;
27491;SDS011;14927;51.210;6.838;2024-02-04T12:56:07;5.15;;;2.47;;
27491;SDS011;14927;51.210;6.838;2024-02-04T12:58:57;2.25;;;1.10;;
27491;SDS011;14927;51.210;6.838;2024-02-04T13:01:42;4.20;;;1.60;;
27491;SDS011;14927;51.210;6.838;2024-02-04T13:04:34;1.88;;;1.27;;
27491;SDS011;14927;51.210;6.838;2024-02-04T13:07:44;2.00;;;1.13;;
27491;SDS011;14927;51.210;6.838;2024-02-04T13:10:30;1.80;;;1.10;;
27491;SDS011;14927;51.210;6.838;2024-02-04T13:13:31;2.28;;;1.27;;
27491;SDS011;14927;51.210;6.838;2024-02-04T13:16:42;1.55;;;1.33;;
27491;SDS011;14927;51.210;6.838;2024-02-04T13:19:33;2.47;;;1.60;;
27491;SDS011;14927;51.210;6.838;2024-02-04T13:22:20;3.92;;;1.40;;
27491;SDS011;14927;51.210;6.838;2024-02-04T13:25:04;4.10;;;1.55;;
27491;SDS011;14927;51.210;6.838;2024-02-04T13:30:48;7.10;;;1.70;;
27491;SDS011;14927;51.210;6.838;2024-02-04T13:33:33;2.05;;;1.70;;
27491;SDS011;14927;51.210;6.838;2024-02-04T13:36:27;2.22;;;1.90;;
27491;SDS011;14927;51.210;6.838;2024-02-04T13:39:15;4.20;;;2.03;;
27491;SDS011;14927;51.210;6.838;2024-02-04T13:42:05;3.30;;;1.85;;
27491;SDS011;14927;51.210;6.838;2024-02-04T13:44:50;6.90;;;2.28;;
27491;SDS011;14927;51.210;6.838;2024-02-04T13:47:35;6.15;;;2.40;;
27491;SDS011;14927;51.210;6.838;2024-02-04T13:50:20;5.72;;;2.65;;
27491;SDS011;14927;51.210;6.838;2024-02-04T13:53:05;4.32;;;2.60;;
27491;SDS011;14927;51.210;6.838;2024-02-04T13:55:49;2.97;;;2.30;;
27491;SDS011;14927;51.210;6.838;2024-02-04T13:58:34;5.53;;;2.60;;
27491;SDS011;14927;51.210;6.838;2024-02-04T14:01:19;8.77;;;4.43;;
27491;SDS011;14927;51.210;6.838;2024-02-04T14:04:06;8.27;;;3.80;;
27491;SDS011;14927;51.210;6.838;2024-02-04T14:06:59;13.07;;;6.63;;
27491;SDS011;14927;51.210;6.838;2024-02-04T14:09:47;31.63;;;11.60;;
27491;SDS011;14927;51.210;6.838;2024-02-04T14:12:32;25.38;;;9.52;;
27491;SDS011;14927;51.210;6.838;2024-02-04T14:15:16;94.30;;;27.50;;
27491;SDS011;14927;51.210;6.838;2024-02-04T14:18:13;154.35;;;42.97;;
27491;SDS011;14927;51.210;6.838;2024-02-04T14:21:55;140.52;;;36.20;;
27491;SDS011;14927;51.210;6.838;2024-02-04T14:25:05;50.45;;;15.60;;
27491;SDS011;14927;51.210;6.838;2024-02-04T14:27:59;9.07;;;4.80;;
27491;SDS011;14927;51.210;6.838;2024-02-04T14:34:50;5.17;;;2.20;;
27491;SDS011;14927;51.210;6.838;2024-02-04T14:37:37;4.38;;;2.20;;
27491;SDS011;14927;51.210;6.838;2024-02-04T14:40:32;4.25;;;1.88;;
27491;SDS011;14927;51.210;6.838;2024-02-04T14:43:41;6.03;;;1.85;;
27491;SDS011;14927;51.210;6.838;2024-02-04T14:47:17;3.03;;;1.70;;
27491;SDS011;14927;51.210;6.838;2024-02-04T14:50:53;3.28;;;1.83;;
27491;SDS011;14927;51.210;6.838;2024-02-04T14:53:59;4.40;;;2.05;;
27491;SDS011;14927;51.210;6.838;2024-02-04T14:57:07;3.58;;;1.55;;
27491;SDS011;14927;51.210;6.838;2024-02-04T15:03:43;4.20;;;1.77;;
27491;SDS011;14927;51.210;6.838;2024-02-04T15:06:28;2.40;;;1.60;;
27491;SDS011;14927;51.210;6.838;2024-02-04T15:09:19;2.55;;;1.45;;
27491;SDS011;14927;51.210;6.838;2024-02-04T15:12:03;2.70;;;1.50;;
27491;SDS011;14927;51.210;6.838;2024-02-04T15:16:08;4.32;;;1.80;;
27491;SDS011;14927;51.210;6.838;2024-02-04T15:26:01;1.67;;;1.42;;
27491;SDS011;14927;51.210;6.838;2024-02-04T15:28:51;2.35;;;1.70;;
27491;SDS011;14927;51.210;6.838;2024-02-04T15:31:36;1.90;;;1.20;;
27491;SDS011;14927;51.210;6.838;2024-02-04T15:34:25;3.15;;;1.83;;
27491;SDS011;14927;51.210;6.838;2024-02-04T15:40:55;3.00;;;1.20;;
27491;SDS011;14927;51.210;6.838;2024-02-04T15:43:42;2.92;;;1.42;;
27491;SDS011;14927;51.210;6.838;2024-02-04T15:46:30;1.52;;;0.98;;
27491;SDS011;14927;51.210;6.838;2024-02-04T15:49:40;2.65;;;1.10;;
27491;SDS011;14927;51.210;6.838;2024-02-04T15:52:42;2.45;;;1.23;;
27491;SDS011;14927;51.210;6.838;2024-02-04T15:55:41;4.10;;;1.50;;
27491;SDS011;14927;51.210;6.838;2024-02-04T15:58:37;2.55;;;1.33;;
27491;SDS011;14927;51.210;6.838;2024-02-04T16:01:45;2.92;;;1.33;;
27491;SDS011;14927;51.210;6.838;2024-02-04T16:08:22;2.35;;;1.13;;
27491;SDS011;14927;51.210;6.838;2024-02-04T16:11:20;2.35;;;1.23;;
27491;SDS011;14927;51.210;6.838;2024-02-04T16:21:03;3.88;;;1.40;;
27491;SDS011;14927;51.210;6.838;2024-02-04T16:23:54;2.72;;;1.10;;
27491;SDS011;14927;51.210;6.838;2024-02-04T16:26:42;2.50;;;1.08;;
27491;SDS011;14927;51.210;6.838;2024-02-04T16:29:29;1.63;;;1.05;;
27491;SDS011;14927;51.210;6.838;2024-02-04T16:32:14;2.28;;;1.23;;
27491;SDS011;14927;51.210;6.838;2024-02-04T16:34:59;1.27;;;1.05;;
27491;SDS011;14927;51.210;6.838;2024-02-04T16:44:19;2.33;;;1.27;;
27491;SDS011;14927;51.210;6.838;2024-02-04T16:47:13;1.63;;;1.00;;
27491;SDS011;14927;51.210;6.838;2024-02-04T16:50:07;1.80;;;1.60;;
27491;SDS011;14927;51.210;6.838;2024-02-04T16:52:53;2.85;;;1.70;;
27491;SDS011;14927;51.210;6.838;2024-02-04T16:55:37;2.03;;;1.17;;
27491;SDS011;14927;51.210;6.838;2024-02-04T16:58:22;1.27;;;1.00;;
27491;SDS011;14927;51.210;6.838;2024-02-04T17:01:07;1.75;;;1.17;;
27491;SDS011;14927;51.210;6.838;2024-02-04T17:03:52;4.63;;;1.27;;
27491;SDS011;14927;51.210;6.838;2024-02-04T17:06:40;5.03;;;1.05;;
27491;SDS011;14927;51.210;6.838;2024-02-04T17:09:28;2.58;;;1.23;;
27491;SDS011;14927;51.210;6.838;2024-02-04T17:12:13;3.63;;;1.30;;
27491;SDS011;14927;51.210;6.838;2024-02-04T17:14:59;2.83;;;0.90;;
27491;SDS011;14927;51.210;6.838;2024-02-04T17:17:45;3.35;;;1.25;;
27491;SDS011;14927;51.210;6.838;2024-02-04T17:20:46;3.92;;;1.30;;
27491;SDS011;14927;51.210;6.838;2024-02-04T17:23:32;3.25;;;1.25;;
27491;SDS011;14927;51.210;6.838;2024-02-04T17:26:23;3.42;;;1.25;;
27491;SDS011;14927;51.210;6.838;2024-02-04T17:29:18;1.77;;;1.50;;
27491;SDS011;14927;51.210;6.838;2024-02-04T17:32:03;4.47;;;1.48;;
27491;SDS011;14927;51.210;6.838;2024-02-04T17:34:53;3.80;;;1.88;;
27491;SDS011;14927;51.210;6.838;2024-02-04T17:37:38;5.03;;;1.85;;
27491;SDS011;14927;51.210;6.838;2024-02-04T17:40:23;3.25;;;1.83;;
27491;SDS011;14927;51.210;6.838;2024-02-04T17:43:09;3.45;;;1.80;;
27491;SDS011;14927;51.210;6.838;2024-02-04T17:46:00;2.70;;;1.85;;
27491;SDS011;14927;51.210;6.838;2024-02-04T17:48:45;3.25;;;1.70;;
27491;SDS011;14927;51.210;6.838;2024-02-04T17:51:32;6.38;;;1.90;;
27491;SDS011;14927;51.210;6.838;2024-02-04T17:54:17;2.10;;;1.80;;
27491;SDS011;14927;51.210;6.838;2024-02-04T17:57:02;4.93;;;1.52;;
27491;SDS011;14927;51.210;6.838;2024-02-04T17:59:51;4.57;;;1.67;;
27491;SDS011;14927;51.210;6.838;2024-02-04T18:02:36;3.17;;;1.85;;
27491;SDS011;14927;51.210;6.838;2024-02-04T18:05:22;4.13;;;1.95;;
27491;SDS011;14927;51.210;6.838;2024-02-04T18:08:07;3.65;;;1.60;;
27491;SDS011;14927;51.210;6.838;2024-02-04T18:10:52;3.20;;;1.70;;
27491;SDS011;14927;51.210;6.838;2024-02-04T18:13:36;3.33;;;1.83;;
27491;SDS011;14927;51.210;6.838;2024-02-04T18:16:25;3.35;;;2.20;;
27491;SDS011;14927;51.210;6.838;2024-02-04T18:19:10;3.53;;;1.83;;
27491;SDS011;14927;51.210;6.838;2024-02-04T18:21:57;7.10;;;2.00;;
27491;SDS011;14927;51.210;6.838;2024-02-04T18:24:45;4.28;;;1.88;;
27491;SDS011;14927;51.210;6.838;2024-02-04T18:27:30;4.45;;;2.08;;
27491;SDS011;14927;51.210;6.838;2024-02-04T18:30:22;4.63;;;2.20;;
27491;SDS011;14927;51.210;6.838;2024-02-04T18:33:23;6.45;;;2.13;;
27491;SDS011;14927;51.210;6.838;2024-02-04T18:36:11;3.30;;;1.83;;
27491;SDS011;14927;51.210;6.838;2024-02-04T18:38:57;7.32;;;2.38;;
27491;SDS011;14927;51.210;6.838;2024-02-04T18:41:44;7.32;;;2.72;;
27491;SDS011;14927;51.210;6.838;2024-02-04T18:44:32;6.88;;;2.40;;
27491;SDS011;14927;51.210;6.838;2024-02-04T18:47:17;5.60;;;2.78;;
27491;SDS011;14927;51.210;6.838;2024-02-04T18:50:01;5.07;;;2.17;;
27491;SDS011;14927;51.210;6.838;2024-02-04T18:52:46;4.70;;;2.10;;
27491;SDS011;14927;51.210;6.838;2024-02-04T18:55:31;6.93;;;2.13;;
27491;SDS011;14927;51.210;6.838;2024-02-04T19:02:08;7.13;;;2.00;;
27491;SDS011;14927;51.210;6.838;2024-02-04T19:04:56;6.72;;;2.20;;
27491;SDS011;14927;51.210;6.838;2024-02-04T19:07:41;8.43;;;2.67;;
27491;SDS011;14927;51.210;6.838;2024-02-04T19:10:33;6.40;;;2.78;;
27491;SDS011;14927;51.210;6.838;2024-02-04T19:13:21;8.70;;;3.05;;
27491;SDS011;14927;51.210;6.838;2024-02-04T19:16:08;7.57;;;2.33;;
27491;SDS011;14927;51.210;6.838;2024-02-04T19:19:02;5.28;;;2.03;;